Time;durP1;ratioP1;P1;durP2;ratioP2;P2;SDS_P1;SDS_P2;PMS_P1;PMS_P2;Temp;Humidity;BMP_temperature;BMP_pressure;BME280_temperature;BME280_humidity;BME280_pressure;Samples;Min_cycle;Max_cycle;Signal;HPM_P1;HPM_P2
2023/09/01 00:00:24;;;;;;;9.20;5.97;;;;;;;;;;5087064;28;20040;-72
2023/09/01 00:03:09;;;;;;;13.13;5.95;;;;;;;;;;5087364;28;20044;-72
2023/09/01 00:05:41;;;;;;;8.18;5.10;;;;;;;;;;5087554;28;20557;-74
2023/09/01 00:08:11;;;;;;;11.98;5.50;;;;;;;;;;5086866;28;20044;-73
2023/09/01 00:10:42;;;;;;;10.35;5.10;;;;;;;;;;5076200;28;20045;-77
2023/09/01 00:13:13;;;;;;;8.32;4.15;;;;;;;;;;5077649;28;20095;-75
2023/09/01 00:15:44;;;;;;;8.32;5.43;;;;;;;;;;5075078;28;20502;-73
2023/09/01 00:18:15;;;;;;;14.82;6.20;;;;;;;;;;5075133;28;20055;-71
2023/09/01 00:20:46;;;;;;;11.10;5.07;;;;;;;;;;5076326;28;20042;-72
2023/09/01 00:23:16;;;;;;;18.23;4.70;;;;;;;;;;5074156;28;20051;-71
2023/09/01 00:25:56;;;;;;;8.23;4.97;;;;;;;;;;5075817;28;20047;-71
2023/09/01 00:28:27;;;;;;;6.80;4.20;;;;;;;;;;5077243;28;20048;-72
2023/09/01 00:30:58;;;;;;;10.07;5.55;;;;;;;;;;5075077;28;20037;-72
2023/09/01 00:33:31;;;;;;;8.50;4.82;;;;;;;;;;5075439;28;20542;-73
2023/09/01 00:36:02;;;;;;;10.05;4.72;;;;;;;;;;5074195;28;20045;-74
2023/09/01 00:38:32;;;;;;;10.25;5.15;;;;;;;;;;5075374;28;20055;-71
2023/09/01 00:41:08;;;;;;;;;;;;;;;;;;5075700;28;20529;-73
2023/09/01 00:43:39;;;;;;;8.35;3.67;;;;;;;;;;5066820;28;19931;-72
2023/09/01 00:46:11;;;;;;;8.13;4.38;;;;;;;;;;5066282;28;20415;-72
2023/09/01 00:48:42;;;;;;;8.07;4.20;;;;;;;;;;5066728;28;20211;-71
2023/09/01 00:51:11;;;;;;;8.32;4.57;;;;;;;;;;5065274;28;20048;-72
2023/09/01 00:53:42;;;;;;;6.05;4.18;;;;;;;;;;5064149;28;20525;-72
2023/09/01 00:56:14;;;;;;;6.40;4.20;;;;;;;;;;5063083;28;20737;-71
2023/09/01 00:58:45;;;;;;;10.05;3.92;;;;;;;;;;5066166;28;20047;-71
2023/09/01 01:01:15;;;;;;;9.82;4.22;;;;;;;;;;5065209;28;20045;-72
2023/09/01 01:03:49;;;;;;;6.65;4.35;;;;;;;;;;5066313;28;20534;-72
2023/09/01 01:06:50;;;;;;;6.25;3.97;;;;;;;;;;5064356;28;20063;-71
2023/09/01 01:09:32;;;;;;;10.65;4.00;;;;;;;;;;5066320;28;20032;-71
2023/09/01 01:12:14;;;;;;;8.77;4.88;;;;;;;;;;5065659;28;20056;-73
2023/09/01 01:14:50;;;;;;;;;;;;;;;;;;5066682;28;20036;-76
2023/09/01 01:17:22;;;;;;;6.20;3.38;;;;;;;;;;5066181;28;20315;-75
2023/09/01 01:20:15;;;;;;;7.25;4.00;;;;;;;;;;5066120;28;20522;-72
2023/09/01 01:23:16;;;;;;;6.65;4.03;;;;;;;;;;5064167;28;20053;-71
2023/09/01 01:25:48;;;;;;;7.32;4.10;;;;;;;;;;5064757;28;20052;-73
2023/09/01 01:28:22;;;;;;;9.35;4.47;;;;;;;;;;5066222;28;20048;-73
2023/09/01 01:30:53;;;;;;;10.35;3.88;;;;;;;;;;5066021;28;20403;-71
2023/09/01 01:33:35;;;;;;;9.20;4.50;;;;;;;;;;5066154;28;20059;-70
2023/09/01 01:36:12;;;;;;;;;;;;;;;;;;5066364;28;20049;-73
2023/09/01 01:38:45;;;;;;;7.78;4.10;;;;;;;;;;5064212;28;19936;-71
2023/09/01 01:41:55;;;;;;;11.77;5.10;;;;;;;;;;5064915;28;20041;-72
2023/09/01 01:44:34;;;;;;;8.43;4.22;;;;;;;;;;5058781;28;20061;-73
2023/09/01 01:47:06;;;;;;;20.98;5.18;;;;;;;;;;5066095;28;20041;-73
2023/09/01 01:49:37;;;;;;;8.20;4.28;;;;;;;;;;5066145;28;20055;-72
2023/09/01 01:52:10;;;;;;;10.32;4.95;;;;;;;;;;5065581;28;20522;-74
2023/09/01 01:54:40;;;;;;;11.65;5.00;;;;;;;;;;5063996;28;20049;-73
2023/09/01 01:57:14;;;;;;;17.33;4.95;;;;;;;;;;5069765;28;20055;-74
2023/09/01 01:59:45;;;;;;;11.20;5.28;;;;;;;;;;5068334;28;20435;-74
2023/09/01 02:02:16;;;;;;;8.02;4.13;;;;;;;;;;5068973;28;20045;-74
2023/09/01 02:04:46;;;;;;;11.05;4.72;;;;;;;;;;5069732;28;20055;-74
2023/09/01 02:07:16;;;;;;;13.68;4.68;;;;;;;;;;5069003;28;20411;-72
2023/09/01 02:09:48;;;;;;;8.43;4.03;;;;;;;;;;5069617;28;20388;-74
2023/09/01 02:12:18;;;;;;;10.43;4.32;;;;;;;;;;5068032;28;20044;-73
2023/09/01 02:14:48;;;;;;;9.82;4.80;;;;;;;;;;5068899;28;20049;-73
2023/09/01 02:17:19;;;;;;;9.90;5.55;;;;;;;;;;5068886;28;20049;-75
2023/09/01 02:19:50;;;;;;;12.82;5.07;;;;;;;;;;5069194;28;20044;-71
2023/09/01 02:22:20;;;;;;;16.38;4.85;;;;;;;;;;5068851;28;20041;-73
2023/09/01 02:24:50;;;;;;;10.45;4.78;;;;;;;;;;5069213;28;20044;-71
2023/09/01 02:27:20;;;;;;;12.10;4.95;;;;;;;;;;5069014;28;20045;-74
2023/09/01 02:29:51;;;;;;;12.45;4.20;;;;;;;;;;5069259;28;20407;-76
2023/09/01 02:32:22;;;;;;;9.50;4.70;;;;;;;;;;5067865;28;20415;-71
2023/09/01 02:34:52;;;;;;;12.02;5.38;;;;;;;;;;5068952;28;20063;-72
2023/09/01 02:37:22;;;;;;;10.80;5.45;;;;;;;;;;5068681;28;20053;-71
2023/09/01 02:39:54;;;;;;;12.43;5.07;;;;;;;;;;5067316;28;20048;-71
2023/09/01 02:42:25;;;;;;;13.98;5.38;;;;;;;;;;5068674;28;20056;-73
2023/09/01 02:44:56;;;;;;;9.32;4.25;;;;;;;;;;5068753;28;20045;-73
2023/09/01 02:47:26;;;;;;;11.18;4.88;;;;;;;;;;5068692;28;20047;-73
2023/09/01 02:49:57;;;;;;;9.35;4.88;;;;;;;;;;5068943;28;20060;-75
2023/09/01 02:52:28;;;;;;;13.02;5.43;;;;;;;;;;5068344;28;20033;-71
2023/09/01 02:54:59;;;;;;;14.20;5.63;;;;;;;;;;5068458;28;20048;-74
2023/09/01 02:57:29;;;;;;;13.93;6.05;;;;;;;;;;5068666;28;20052;-71
2023/09/01 02:59:59;;;;;;;9.70;5.22;;;;;;;;;;5068792;28;20044;-72
2023/09/01 03:02:30;;;;;;;17.70;5.57;;;;;;;;;;5068767;28;20048;-72
2023/09/01 03:05:01;;;;;;;10.80;5.47;;;;;;;;;;5066281;28;20048;-72
2023/09/01 03:07:31;;;;;;;11.65;4.85;;;;;;;;;;5065960;28;20044;-72
2023/09/01 03:10:06;;;;;;;8.38;4.70;;;;;;;;;;5066641;28;20056;-73
2023/09/01 03:12:39;;;;;;;9.15;4.72;;;;;;;;;;5068502;28;20044;-74
2023/09/01 03:15:10;;;;;;;11.48;4.95;;;;;;;;;;5066474;28;20044;-71
2023/09/01 03:17:41;;;;;;;8.27;4.60;;;;;;;;;;5066044;28;20079;-70
2023/09/01 03:20:12;;;;;;;14.40;5.57;;;;;;;;;;5066156;28;20542;-73
2023/09/01 03:22:42;;;;;;;14.07;5.35;;;;;;;;;;5066089;28;20052;-73
2023/09/01 03:25:13;;;;;;;9.88;4.97;;;;;;;;;;5067662;28;20045;-70
2023/09/01 03:27:44;;;;;;;7.82;4.53;;;;;;;;;;5068490;28;20044;-71
2023/09/01 03:30:14;;;;;;;10.50;5.15;;;;;;;;;;5066073;28;20055;-70
2023/09/01 03:32:45;;;;;;;12.38;5.53;;;;;;;;;;5066356;28;20040;-71
2023/09/01 03:35:16;;;;;;;13.63;5.32;;;;;;;;;;5066066;28;20059;-70
2023/09/01 03:37:48;;;;;;;11.73;5.03;;;;;;;;;;5066688;28;20051;-73
2023/09/01 03:40:18;;;;;;;8.60;5.20;;;;;;;;;;5067519;28;20048;-70
2023/09/01 03:42:48;;;;;;;12.30;5.15;;;;;;;;;;5067433;28;20049;-72
2023/09/01 03:45:18;;;;;;;8.60;5.00;;;;;;;;;;5065841;28;20060;-74
2023/09/01 03:47:48;;;;;;;14.45;5.88;;;;;;;;;;5066021;28;20366;-73
2023/09/01 03:50:19;;;;;;;12.18;5.95;;;;;;;;;;5066189;28;20055;-71
2023/09/01 03:52:50;;;;;;;13.40;5.10;;;;;;;;;;5067588;28;20048;-72
2023/09/01 03:55:21;;;;;;;13.68;5.75;;;;;;;;;;5066927;28;20059;-72
2023/09/01 03:57:51;;;;;;;10.15;4.85;;;;;;;;;;5068309;28;20045;-75
2023/09/01 04:00:22;;;;;;;9.32;5.85;;;;;;;;;;5067323;28;20110;-70
2023/09/01 04:02:52;;;;;;;10.70;4.95;;;;;;;;;;5067048;28;20036;-73
2023/09/01 04:05:22;;;;;;;10.55;6.07;;;;;;;;;;5067309;28;20507;-71
2023/09/01 04:07:53;;;;;;;12.27;5.25;;;;;;;;;;5064761;28;20063;-73
2023/09/01 04:10:28;;;;;;;11.80;5.20;;;;;;;;;;5066316;28;20519;-72
2023/09/01 04:12:58;;;;;;;11.13;5.45;;;;;;;;;;5066366;28;20041;-71
2023/09/01 04:15:28;;;;;;;9.23;5.85;;;;;;;;;;5066156;28;20055;-72
2023/09/01 04:17:58;;;;;;;13.63;5.82;;;;;;;;;;5064276;28;20056;-74
2023/09/01 04:20:29;;;;;;;13.40;5.97;;;;;;;;;;5065352;28;20056;-72
2023/09/01 04:22:59;;;;;;;11.45;6.60;;;;;;;;;;5064776;28;20056;-71
2023/09/01 04:25:34;;;;;;;10.90;5.63;;;;;;;;;;5065382;28;20063;-73
2023/09/01 04:28:04;;;;;;;13.05;5.60;;;;;;;;;;5065612;28;20063;-72
2023/09/01 04:30:34;;;;;;;15.15;6.13;;;;;;;;;;5065049;28;20049;-72
2023/09/01 04:33:05;;;;;;;9.68;5.47;;;;;;;;;;5064794;28;20056;-71
2023/09/01 04:35:38;;;;;;;12.23;5.63;;;;;;;;;;5064900;28;20044;-72
2023/09/01 04:38:10;;;;;;;16.42;5.97;;;;;;;;;;5064836;28;20059;-73
2023/09/01 04:40:42;;;;;;;10.32;5.95;;;;;;;;;;5048842;28;20060;-72
2023/09/01 04:43:12;;;;;;;17.85;6.90;;;;;;;;;;5065350;28;20060;-74
2023/09/01 04:45:46;;;;;;;11.48;5.85;;;;;;;;;;5064762;28;20397;-74
2023/09/01 04:48:18;;;;;;;16.65;6.47;;;;;;;;;;5064861;28;20044;-73
2023/09/01 04:50:48;;;;;;;11.88;6.15;;;;;;;;;;5064990;28;20052;-71
2023/09/01 04:53:20;;;;;;;13.00;5.85;;;;;;;;;;5064940;28;20044;-74
2023/09/01 04:55:53;;;;;;;7.68;5.97;;;;;;;;;;5064914;28;20051;-74
2023/09/01 04:58:25;;;;;;;12.35;5.97;;;;;;;;;;5065180;28;20507;-73
2023/09/01 05:00:56;;;;;;;10.10;5.68;;;;;;;;;;5066660;28;20063;-72
2023/09/01 05:03:27;;;;;;;9.35;5.78;;;;;;;;;;5064954;28;20057;-72
2023/09/01 05:05:58;;;;;;;12.25;6.53;;;;;;;;;;5064091;28;20518;-72
2023/09/01 05:08:28;;;;;;;11.38;5.82;;;;;;;;;;5064503;28;20063;-74
2023/09/01 05:10:58;;;;;;;16.95;6.18;;;;;;;;;;5064563;28;20056;-72
2023/09/01 05:13:29;;;;;;;15.18;6.03;;;;;;;;;;5064535;28;20052;-73
2023/09/01 05:15:59;;;;;;;10.90;5.72;;;;;;;;;;5064782;28;20056;-71
2023/09/01 05:18:30;;;;;;;8.18;5.53;;;;;;;;;;5064384;28;20052;-72
2023/09/01 05:21:00;;;;;;;10.23;5.90;;;;;;;;;;5064340;28;20045;-71
2023/09/01 05:23:32;;;;;;;15.07;6.28;;;;;;;;;;5064422;28;20068;-71
2023/09/01 05:26:03;;;;;;;10.38;5.90;;;;;;;;;;5065413;28;20054;-75
2023/09/01 05:28:33;;;;;;;10.40;5.60;;;;;;;;;;5064494;28;20045;-73
2023/09/01 05:31:05;;;;;;;8.98;5.68;;;;;;;;;;5068596;28;20071;-71
2023/09/01 05:33:41;;;;;;;12.68;6.28;;;;;;;;;;5068647;28;20052;-73
2023/09/01 05:36:11;;;;;;;11.95;6.25;;;;;;;;;;5068327;28;20064;-72
2023/09/01 05:38:42;;;;;;;10.77;5.95;;;;;;;;;;5068904;28;20055;-73
2023/09/01 05:41:14;;;;;;;8.50;5.20;;;;;;;;;;5070032;28;20533;-71
2023/09/01 05:43:44;;;;;;;10.52;5.80;;;;;;;;;;5068183;28;20484;-73
2023/09/01 05:46:15;;;;;;;9.55;5.13;;;;;;;;;;5068462;28;20071;-71
2023/09/01 05:48:45;;;;;;;7.85;4.90;;;;;;;;;;5069824;28;20044;-74
2023/09/01 05:51:16;;;;;;;10.82;5.78;;;;;;;;;;5068281;28;20056;-71
2023/09/01 05:53:46;;;;;;;9.02;5.20;;;;;;;;;;5069897;28;20068;-70
2023/09/01 05:56:17;;;;;;;14.43;5.93;;;;;;;;;;5069090;28;20076;-71
2023/09/01 05:58:47;;;;;;;11.15;4.93;;;;;;;;;;5069641;28;20569;-73
2023/09/01 06:01:21;;;;;;;9.13;5.10;;;;;;;;;;5069454;28;20492;-73
2023/09/01 06:03:51;;;;;;;12.48;6.13;;;;;;;;;;5068984;28;20040;-74
2023/09/01 06:06:22;;;;;;;12.35;5.95;;;;;;;;;;5069935;28;20526;-74
2023/09/01 06:08:52;;;;;;;15.85;6.63;;;;;;;;;;5069300;28;20052;-70
2023/09/01 06:11:23;;;;;;;10.00;4.82;;;;;;;;;;5067565;28;20420;-73
2023/09/01 06:13:53;;;;;;;8.15;5.85;;;;;;;;;;5068906;28;20048;-73
2023/09/01 06:16:25;;;;;;;11.38;5.20;;;;;;;;;;5069231;28;20416;-70
2023/09/01 06:18:58;;;;;;;14.40;6.35;;;;;;;;;;5069110;28;20052;-71
2023/09/01 06:21:31;;;;;;;13.45;6.57;;;;;;;;;;5068954;28;20045;-71
2023/09/01 06:24:01;;;;;;;12.88;5.70;;;;;;;;;;5069121;28;20053;-75
2023/09/01 06:26:31;;;;;;;10.73;6.43;;;;;;;;;;5068038;28;20045;-75
2023/09/01 06:29:01;;;;;;;12.00;6.32;;;;;;;;;;5066782;28;20056;-72
2023/09/01 06:31:32;;;;;;;13.55;6.20;;;;;;;;;;5067367;28;20052;-72
2023/09/01 06:34:04;;;;;;;9.77;5.75;;;;;;;;;;5067664;28;20063;-73
2023/09/01 06:36:35;;;;;;;8.98;5.82;;;;;;;;;;5066932;28;20060;-74
2023/09/01 06:39:06;;;;;;;7.45;5.70;;;;;;;;;;5067290;28;20045;-73
2023/09/01 06:41:40;;;;;;;11.52;5.80;;;;;;;;;;5066808;28;20045;-74
2023/09/01 06:44:11;;;;;;;9.45;5.63;;;;;;;;;;5066950;28;20036;-73
2023/09/01 06:46:42;;;;;;;14.25;5.60;;;;;;;;;;5066377;28;20045;-75
2023/09/01 06:49:14;;;;;;;8.63;5.97;;;;;;;;;;5067438;28;20041;-73
2023/09/01 06:51:45;;;;;;;10.13;6.13;;;;;;;;;;5066209;28;20056;-73
2023/09/01 06:54:16;;;;;;;10.30;6.07;;;;;;;;;;5067838;28;20048;-73
2023/09/01 06:56:45;;;;;;;10.68;5.70;;;;;;;;;;5067029;28;20419;-73
2023/09/01 06:59:16;;;;;;;8.55;6.10;;;;;;;;;;5067092;28;20045;-73
2023/09/01 07:01:47;;;;;;;8.50;5.72;;;;;;;;;;5066015;28;20063;-71
2023/09/01 07:04:19;;;;;;;10.27;6.15;;;;;;;;;;5067357;28;20048;-71
2023/09/01 07:06:49;;;;;;;9.18;6.38;;;;;;;;;;5067389;28;20055;-73
2023/09/01 07:09:19;;;;;;;10.38;6.65;;;;;;;;;;5066387;28;20044;-74
2023/09/01 07:11:49;;;;;;;10.70;6.05;;;;;;;;;;5067562;28;20037;-74
2023/09/01 07:14:19;;;;;;;10.40;6.03;;;;;;;;;;5067556;28;20049;-73
2023/09/01 07:16:49;;;;;;;9.93;5.75;;;;;;;;;;5067162;28;20053;-74
2023/09/01 07:19:19;;;;;;;9.35;5.80;;;;;;;;;;5067598;28;20055;-73
2023/09/01 07:21:49;;;;;;;11.52;5.68;;;;;;;;;;5067415;28;20052;-70
2023/09/01 07:24:19;;;;;;;9.65;5.68;;;;;;;;;;4979336;28;2526399;-72
2023/09/01 07:26:50;;;;;;;11.13;6.07;;;;;;;;;;5068178;28;20590;-71
2023/09/01 07:29:20;;;;;;;11.55;6.25;;;;;;;;;;5067853;28;20044;-71
2023/09/01 07:31:51;;;;;;;12.13;6.32;;;;;;;;;;5067023;28;20052;-75
2023/09/01 07:34:21;;;;;;;9.90;6.47;;;;;;;;;;5067540;28;20044;-73
2023/09/01 07:36:53;;;;;;;8.55;5.90;;;;;;;;;;5067797;28;20044;-71
2023/09/01 07:39:23;;;;;;;13.27;6.38;;;;;;;;;;5067063;28;20411;-74
2023/09/01 07:41:53;;;;;;;10.55;6.22;;;;;;;;;;5067957;28;20051;-72
2023/09/01 07:44:26;;;;;;;10.00;7.00;;;;;;;;;;5067606;28;20036;-72
2023/09/01 07:46:57;;;;;;;12.55;6.95;;;;;;;;;;5067253;28;20040;-73
2023/09/01 07:49:27;;;;;;;11.85;7.10;;;;;;;;;;5067855;28;20055;-72
2023/09/01 07:51:58;;;;;;;13.48;7.07;;;;;;;;;;5067559;28;20045;-72
2023/09/01 07:54:30;;;;;;;12.80;7.53;;;;;;;;;;5066969;28;20040;-72
2023/09/01 07:57:00;;;;;;;9.48;7.50;;;;;;;;;;5066728;28;20049;-74
2023/09/01 07:59:30;;;;;;;10.63;6.57;;;;;;;;;;5067095;28;20044;-74
2023/09/01 08:02:00;;;;;;;11.55;7.03;;;;;;;;;;5067185;28;20045;-72
2023/09/01 08:04:30;;;;;;;9.50;6.40;;;;;;;;;;5067198;28;20592;-73
2023/09/01 08:07:03;;;;;;;12.73;6.30;;;;;;;;;;5067200;28;20414;-71
2023/09/01 08:09:33;;;;;;;11.73;6.80;;;;;;;;;;5066649;28;20052;-70
2023/09/01 08:12:04;;;;;;;16.45;7.60;;;;;;;;;;5067237;28;20055;-71
2023/09/01 08:14:34;;;;;;;16.35;7.78;;;;;;;;;;5066720;28;20438;-72
2023/09/01 08:17:04;;;;;;;15.35;6.40;;;;;;;;;;5066932;28;20085;-73
2023/09/01 08:19:47;;;;;;;14.40;7.82;;;;;;;;;;5067227;28;20411;-71
2023/09/01 08:22:19;;;;;;;14.55;7.90;;;;;;;;;;5066847;28;20495;-73
2023/09/01 08:24:50;;;;;;;26.73;7.65;;;;;;;;;;5066674;28;20056;-74
2023/09/01 08:27:20;;;;;;;30.85;8.73;;;;;;;;;;5066805;28;20052;-73
2023/09/01 08:29:50;;;;;;;56.45;9.20;;;;;;;;;;5066440;28;20052;-71
2023/09/01 08:32:20;;;;;;;43.92;9.45;;;;;;;;;;5066105;28;20052;-78
2023/09/01 08:34:50;;;;;;;36.47;10.75;;;;;;;;;;5066228;28;20048;-73
2023/09/01 08:37:21;;;;;;;41.45;9.18;;;;;;;;;;5066293;28;20059;-72
2023/09/01 08:39:51;;;;;;;23.63;8.40;;;;;;;;;;5064834;28;20057;-72
2023/09/01 08:42:22;;;;;;;32.28;8.13;;;;;;;;;;5066603;28;20049;-74
2023/09/01 08:44:55;;;;;;;35.67;10.73;;;;;;;;;;5066187;28;20052;-71
2023/09/01 08:47:28;;;;;;;63.97;9.60;;;;;;;;;;5066815;28;20049;-73
2023/09/01 08:49:59;;;;;;;46.70;8.90;;;;;;;;;;5066968;28;20048;-75
2023/09/01 08:52:30;;;;;;;54.38;9.80;;;;;;;;;;5066978;28;20495;-73
2023/09/01 08:55:02;;;;;;;187.98;12.40;;;;;;;;;;5066334;28;20055;-71
2023/09/01 08:57:32;;;;;;;96.97;9.07;;;;;;;;;;5064687;28;20052;-70
2023/09/01 09:00:04;;;;;;;80.75;7.90;;;;;;;;;;5065171;28;20048;-73
2023/09/01 09:02:36;;;;;;;133.38;10.18;;;;;;;;;;5066472;28;20044;-71
2023/09/01 09:05:13;;;;;;;75.82;8.75;;;;;;;;;;5064760;28;20051;-73
2023/09/01 09:07:58;;;;;;;97.45;8.60;;;;;;;;;;5066133;28;20044;-71
2023/09/01 09:10:38;;;;;;;65.32;8.25;;;;;;;;;;5066720;28;20404;-73
2023/09/01 09:13:26;;;;;;;30.00;7.82;;;;;;;;;;5065850;28;20053;-71
2023/09/01 09:16:13;;;;;;;46.90;8.55;;;;;;;;;;5065980;28;20071;-71
2023/09/01 09:18:48;;;;;;;48.17;8.13;;;;;;;;;;5066716;28;20047;-74
2023/09/01 09:21:33;;;;;;;25.38;9.27;;;;;;;;;;5066600;28;20044;-73
2023/09/01 09:24:04;;;;;;;30.83;9.95;;;;;;;;;;5066443;28;20071;-73
2023/09/01 09:26:58;;;;;;;32.88;7.57;;;;;;;;;;5065749;28;20049;-74
2023/09/01 09:29:41;;;;;;;31.75;9.18;;;;;;;;;;5066391;28;20049;-74
2023/09/01 09:32:23;;;;;;;22.42;8.82;;;;;;;;;;5066094;28;20048;-73
2023/09/01 09:35:11;;;;;;;22.27;8.02;;;;;;;;;;5065784;28;20090;-74
2023/09/01 09:37:43;;;;;;;27.48;10.18;;;;;;;;;;5065988;28;20059;-73
2023/09/01 09:40:17;;;;;;;38.92;10.27;;;;;;;;;;5065714;28;20658;-72
2023/09/01 09:42:48;;;;;;;26.10;9.60;;;;;;;;;;5065635;28;20060;-73
2023/09/01 09:45:22;;;;;;;35.00;10.27;;;;;;;;;;5065566;28;20041;-73
2023/09/01 09:48:02;;;;;;;23.38;9.23;;;;;;;;;;5066019;28;20373;-73
2023/09/01 09:50:34;;;;;;;43.55;10.27;;;;;;;;;;5065880;28;20044;-74
2023/09/01 09:53:06;;;;;;;23.15;10.52;;;;;;;;;;5065724;28;20062;-73
2023/09/01 09:55:48;;;;;;;25.48;10.93;;;;;;;;;;5065508;28;20057;-74
2023/09/01 09:58:31;;;;;;;58.58;12.57;;;;;;;;;;5065928;28;20048;-73
2023/09/01 10:01:13;;;;;;;35.65;18.40;;;;;;;;;;5065727;28;20052;-74
2023/09/01 10:03:45;;;;;;;39.63;13.23;;;;;;;;;;5065803;28;20410;-73
2023/09/01 10:06:19;;;;;;;43.22;13.48;;;;;;;;;;5065614;28;20055;-75
2023/09/01 10:08:55;;;;;;;80.05;13.18;;;;;;;;;;5065810;28;20041;-71
2023/09/01 10:11:29;;;;;;;53.90;14.45;;;;;;;;;;5065940;28;20044;-73
2023/09/01 10:14:00;;;;;;;66.20;15.00;;;;;;;;;;5065800;28;20056;-71
2023/09/01 10:16:31;;;;;;;119.65;14.68;;;;;;;;;;5067410;28;20502;-72
2023/09/01 10:19:05;;;;;;;44.90;12.15;;;;;;;;;;5069305;28;20414;-75
2023/09/01 10:21:36;;;;;;;52.13;14.35;;;;;;;;;;5068986;28;20048;-78
2023/09/01 10:24:13;;;;;;;22.58;12.43;;;;;;;;;;5069314;28;20087;-72
2023/09/01 10:26:44;;;;;;;33.47;16.50;;;;;;;;;;5078640;28;20036;-71
2023/09/01 10:29:35;;;;;;;27.95;12.27;;;;;;;;;;5088819;28;20052;-73
2023/09/01 10:32:17;;;;;;;42.95;10.65;;;;;;;;;;5089561;28;20463;-72
2023/09/01 10:34:54;;;;;;;39.95;9.00;;;;;;;;;;5088704;28;20047;-73
2023/09/01 10:37:32;;;;;;;30.45;8.98;;;;;;;;;;5089596;28;20048;-73
2023/09/01 10:40:23;;;;;;;18.50;8.75;;;;;;;;;;5087921;28;20052;-74
2023/09/01 10:42:55;;;;;;;40.92;7.00;;;;;;;;;;5088635;28;20040;-73
2023/09/01 10:45:26;;;;;;;49.67;8.15;;;;;;;;;;5089570;28;20040;-73
2023/09/01 10:47:58;;;;;;;89.85;8.35;;;;;;;;;;5075386;28;20055;-71
2023/09/01 10:50:34;;;;;;;51.63;8.23;;;;;;;;;;5068337;28;20053;-72
2023/09/01 10:53:30;;;;;;;37.25;8.15;;;;;;;;;;5068491;28;20045;-74
2023/09/01 10:56:11;;;;;;;20.75;8.00;;;;;;;;;;5068478;28;20048;-76
2023/09/01 10:58:47;;;;;;;33.38;9.45;;;;;;;;;;5068536;28;20499;-74
2023/09/01 11:01:37;;;;;;;33.70;9.50;;;;;;;;;;5068463;28;20064;-74
2023/09/01 11:04:15;;;;;;;43.75;8.50;;;;;;;;;;5068179;28;20049;-75
2023/09/01 11:07:00;;;;;;;23.10;12.15;;;;;;;;;;5068533;28;20055;-78
2023/09/01 11:09:33;;;;;;;53.42;13.20;;;;;;;;;;5068337;28;20048;-73
2023/09/01 11:12:05;;;;;;;61.50;10.55;;;;;;;;;;5068307;28;20048;-74
2023/09/01 11:14:38;;;;;;;30.70;9.80;;;;;;;;;;5068706;28;20047;-74
2023/09/01 11:17:09;;;;;;;61.25;9.98;;;;;;;;;;5067608;28;20053;-72
2023/09/01 11:19:48;;;;;;;40.10;11.45;;;;;;;;;;5067144;28;20048;-72
2023/09/01 11:22:18;;;;;;;47.70;11.32;;;;;;;;;;5067691;28;20055;-72
2023/09/01 11:24:49;;;;;;;29.63;8.77;;;;;;;;;;5067794;28;20048;-73
2023/09/01 11:27:20;;;;;;;51.80;10.80;;;;;;;;;;5066726;28;20547;-73
2023/09/01 11:29:54;;;;;;;67.10;10.73;;;;;;;;;;5067640;28;20052;-74
2023/09/01 11:32:28;;;;;;;137.95;13.23;;;;;;;;;;5067720;28;20391;-74
2023/09/01 11:35:00;;;;;;;31.92;12.25;;;;;;;;;;5066888;28;20036;-72
2023/09/01 11:37:39;;;;;;;90.70;12.48;;;;;;;;;;5066271;28;20056;-73
2023/09/01 11:40:12;;;;;;;44.58;12.55;;;;;;;;;;5066280;28;20722;-72
2023/09/01 11:42:44;;;;;;;35.50;11.50;;;;;;;;;;5067536;28;20048;-73
2023/09/01 11:45:14;;;;;;;54.40;11.18;;;;;;;;;;5068095;28;20052;-74
2023/09/01 11:47:52;;;;;;;57.42;12.70;;;;;;;;;;5067761;28;20044;-74
2023/09/01 11:50:24;;;;;;;58.28;12.73;;;;;;;;;;5066734;28;20041;-75
2023/09/01 11:52:57;;;;;;;42.33;10.77;;;;;;;;;;5067722;28;20048;-79
2023/09/01 11:55:32;;;;;;;45.67;10.63;;;;;;;;;;5067193;28;20041;-74
2023/09/01 11:58:04;;;;;;;33.13;9.18;;;;;;;;;;5067470;28;20056;-74
2023/09/01 12:00:38;;;;;;;26.77;10.63;;;;;;;;;;5067185;28;20055;-73
2023/09/01 12:03:09;;;;;;;22.45;8.68;;;;;;;;;;5067120;28;20859;-72
2023/09/01 12:05:40;;;;;;;27.23;10.75;;;;;;;;;;5067609;28;20404;-73
2023/09/01 12:08:11;;;;;;;39.00;9.77;;;;;;;;;;5067263;28;20045;-73
2023/09/01 12:10:42;;;;;;;43.70;10.70;;;;;;;;;;5066928;28;20037;-72
2023/09/01 12:13:13;;;;;;;19.77;10.32;;;;;;;;;;5067487;28;20048;-73
2023/09/01 12:16:00;;;;;;;28.65;11.57;;;;;;;;;;5067132;28;20048;-72
2023/09/01 12:18:35;;;;;;;16.70;10.25;;;;;;;;;;5067008;28;20052;-73
2023/09/01 12:21:11;;;;;;;17.95;9.35;;;;;;;;;;5066833;28;20056;-76
2023/09/01 12:23:45;;;;;;;19.55;10.05;;;;;;;;;;5066656;28;20513;-74
2023/09/01 12:26:16;;;;;;;19.70;9.85;;;;;;;;;;5066832;28;20052;-74
2023/09/01 12:28:47;;;;;;;17.50;10.27;;;;;;;;;;5066309;28;20411;-72
2023/09/01 12:31:18;;;;;;;24.10;11.40;;;;;;;;;;5066730;28;20049;-72
2023/09/01 12:33:48;;;;;;;23.67;11.48;;;;;;;;;;5067153;28;20052;-74
2023/09/01 12:36:19;;;;;;;26.98;11.32;;;;;;;;;;5067186;28;20044;-73
2023/09/01 12:38:50;;;;;;;20.63;10.07;;;;;;;;;;5066524;28;20056;-73
2023/09/01 12:41:23;;;;;;;22.80;10.40;;;;;;;;;;5066710;28;20048;-75
2023/09/01 12:43:53;;;;;;;20.33;10.05;;;;;;;;;;5066801;28;20483;-75
2023/09/01 12:46:23;;;;;;;18.60;10.55;;;;;;;;;;5065305;28;20067;-74
2023/09/01 12:48:54;;;;;;;21.67;10.23;;;;;;;;;;5066265;28;20052;-75
2023/09/01 12:51:26;;;;;;;23.73;11.48;;;;;;;;;;5066902;28;20048;-71
2023/09/01 12:53:55;;;;;;;19.50;10.55;;;;;;;;;;5066652;28;20495;-72
2023/09/01 12:56:26;;;;;;;17.42;10.98;;;;;;;;;;5066436;28;20384;-73
2023/09/01 12:58:56;;;;;;;23.23;11.10;;;;;;;;;;5066115;28;20570;-72
2023/09/01 13:01:27;;;;;;;19.00;10.18;;;;;;;;;;5066248;28;20044;-74
2023/09/01 13:03:58;;;;;;;19.90;10.05;;;;;;;;;;5065916;28;20049;-73
2023/09/01 13:06:28;;;;;;;17.73;9.63;;;;;;;;;;5066106;28;20055;-77
2023/09/01 13:08:58;;;;;;;16.25;9.57;;;;;;;;;;5066193;28;20070;-72
2023/09/01 13:11:28;;;;;;;27.00;9.77;;;;;;;;;;5066441;28;20415;-74
2023/09/01 13:14:01;;;;;;;15.93;9.95;;;;;;;;;;5065109;28;20060;-71
2023/09/01 13:16:31;;;;;;;15.23;9.98;;;;;;;;;;5066379;28;20415;-75
2023/09/01 13:19:01;;;;;;;15.95;9.27;;;;;;;;;;5066355;28;20519;-72
2023/09/01 13:21:33;;;;;;;15.20;9.45;;;;;;;;;;5065802;28;20051;-73
2023/09/01 13:24:04;;;;;;;14.35;8.23;;;;;;;;;;5065547;28;20075;-72
2023/09/01 13:26:35;;;;;;;15.73;9.07;;;;;;;;;;5065567;28;20060;-75
2023/09/01 13:29:05;;;;;;;20.48;9.52;;;;;;;;;;5065085;28;20048;-75
2023/09/01 13:31:36;;;;;;;15.88;12.20;;;;;;;;;;5065830;28;20048;-73
2023/09/01 13:34:07;;;;;;;13.70;8.90;;;;;;;;;;5066186;28;20548;-72
2023/09/01 13:36:37;;;;;;;15.77;9.07;;;;;;;;;;5065607;28;20048;-74
2023/09/01 13:39:08;;;;;;;11.60;7.20;;;;;;;;;;5066007;28;20057;-74
2023/09/01 13:41:39;;;;;;;13.20;8.35;;;;;;;;;;5066508;28;20041;-74
2023/09/01 13:44:10;;;;;;;13.50;8.15;;;;;;;;;;5066311;28;20063;-72
2023/09/01 13:46:40;;;;;;;13.38;7.82;;;;;;;;;;5065744;28;20056;-76
2023/09/01 13:49:12;;;;;;;16.70;8.15;;;;;;;;;;5065331;28;20051;-73
2023/09/01 13:51:43;;;;;;;13.65;9.27;;;;;;;;;;5066050;28;20048;-73
2023/09/01 13:54:14;;;;;;;14.77;7.43;;;;;;;;;;5069666;28;20499;-74
2023/09/01 13:56:44;;;;;;;11.23;7.53;;;;;;;;;;5070298;28;20060;-73
2023/09/01 13:59:15;;;;;;;16.67;8.65;;;;;;;;;;5069700;28;20048;-72
2023/09/01 14:01:46;;;;;;;9.48;7.32;;;;;;;;;;5067803;28;20056;-75
2023/09/01 14:04:17;;;;;;;15.55;7.85;;;;;;;;;;5069921;28;20040;-73
2023/09/01 14:06:48;;;;;;;12.93;7.60;;;;;;;;;;5068048;28;20052;-72
2023/09/01 14:09:18;;;;;;;14.05;8.63;;;;;;;;;;5069922;28;20044;-78
2023/09/01 14:11:49;;;;;;;11.25;6.97;;;;;;;;;;5069363;28;20048;-74
2023/09/01 14:14:21;;;;;;;12.45;7.78;;;;;;;;;;5067820;28;20067;-74
2023/09/01 14:16:52;;;;;;;13.02;7.32;;;;;;;;;;5069643;28;20052;-75
2023/09/01 14:19:24;;;;;;;13.05;7.50;;;;;;;;;;5068027;28;20053;-74
2023/09/01 14:21:54;;;;;;;18.48;10.00;;;;;;;;;;5069381;28;20052;-71
2023/09/01 14:24:25;;;;;;;12.32;7.85;;;;;;;;;;5068416;28;20049;-74
2023/09/01 14:26:55;;;;;;;19.60;8.38;;;;;;;;;;5069319;28;20063;-72
2023/09/01 14:29:29;;;;;;;11.10;7.78;;;;;;;;;;5068913;28;20048;-71
2023/09/01 14:32:00;;;;;;;15.18;7.55;;;;;;;;;;5068824;28;20047;-74
2023/09/01 14:34:31;;;;;;;11.13;8.27;;;;;;;;;;5069378;28;20412;-73
2023/09/01 14:37:01;;;;;;;12.10;7.55;;;;;;;;;;5067058;28;20400;-71
2023/09/01 14:39:32;;;;;;;10.70;7.15;;;;;;;;;;5069466;28;20529;-75
2023/09/01 14:42:03;;;;;;;16.45;8.27;;;;;;;;;;5068666;28;20053;-75
2023/09/01 14:44:33;;;;;;;12.60;7.18;;;;;;;;;;5069177;28;20043;-72
2023/09/01 14:47:05;;;;;;;11.38;6.97;;;;;;;;;;5068836;28;20048;-75
2023/09/01 14:49:35;;;;;;;15.25;7.38;;;;;;;;;;5067959;28;20037;-74
2023/09/01 14:52:05;;;;;;;12.50;7.15;;;;;;;;;;5067135;28;20064;-71
2023/09/01 14:54:36;;;;;;;14.85;8.18;;;;;;;;;;5068861;28;20051;-73
2023/09/01 14:57:14;;;;;;;15.25;8.15;;;;;;;;;;5068391;28;20048;-75
2023/09/01 14:59:44;;;;;;;16.40;7.55;;;;;;;;;;5068235;28;20055;-75
2023/09/01 15:02:15;;;;;;;17.30;7.47;;;;;;;;;;5066631;28;20495;-76